Time;durP1;ratioP1;P1;durP2;ratioP2;P2;SDS_P1;SDS_P2;PMS_P1;PMS_P2;Temp;Humidity;BMP_temperature;BMP_pressure;BME280_temperature;BME280_humidity;BME280_pressure;Samples;Min_cycle;Max_cycle;Signal;HPM_P1;HPM_P2
2021/06/11 00:01:00;;;;;;;5.70;4.20;;;;;;;16.72;70.35;96997.34;4949601;29;20056;-81
2021/06/11 00:03:28;;;;;;;8.70;4.50;;;;;;;16.68;70.23;96991.66;4949812;29;20066;-80
2021/06/11 00:05:56;;;;;;;5.57;3.83;;;;;;;16.65;70.29;96990.28;4948291;29;20123;-81
2021/06/11 00:08:25;;;;;;;11.55;5.05;;;;;;;16.65;70.58;96994.75;4949427;29;20539;-80
2021/06/11 00:10:55;;;;;;;6.13;3.72;;;;;;;16.69;71.65;96993.31;4949719;29;20060;-80
2021/06/11 00:13:23;;;;;;;4.28;3.88;;;;;;;16.72;70.74;96990.22;4957204;29;20052;-80
2021/06/11 00:15:51;;;;;;;6.32;4.22;;;;;;;16.70;70.75;96984.38;4952422;29;20420;-80
2021/06/11 00:18:20;;;;;;;4.82;4.32;;;;;;;16.68;70.71;96986.41;4952098;29;20048;-81
2021/06/11 00:20:47;;;;;;;5.00;4.03;;;;;;;16.69;71.27;96990.66;4949908;29;20056;-80
2021/06/11 00:23:15;;;;;;;4.55;3.78;;;;;;;16.68;70.58;96986.41;4949091;29;20051;-80
2021/06/11 00:25:43;;;;;;;6.93;4.57;;;;;;;16.65;70.54;96987.63;4950073;29;20071;-80
2021/06/11 00:28:14;;;;;;;4.35;3.72;;;;;;;16.65;71.01;96997.38;4950654;28;20051;-81
2021/06/11 00:30:45;;;;;;;4.50;4.15;;;;;;;16.64;70.54;96998.41;4951045;29;20490;-81
2021/06/11 00:33:14;;;;;;;6.88;4.40;;;;;;;16.61;70.52;96990.91;4956694;29;20502;-81
2021/06/11 00:35:44;;;;;;;5.70;4.03;;;;;;;16.56;70.56;96996.81;4952725;29;20107;-81
2021/06/11 00:38:13;;;;;;;5.63;4.28;;;;;;;16.52;70.66;97000.06;4952898;29;20084;-81
2021/06/11 00:40:44;;;;;;;6.45;4.70;;;;;;;16.46;70.79;96999.06;4959209;29;20114;-81
2021/06/11 00:43:14;;;;;;;4.63;4.15;;;;;;;16.43;71.30;96995.03;4952591;29;20062;-80
2021/06/11 00:45:44;;;;;;;4.80;4.32;;;;;;;16.43;71.17;96999.50;4952657;29;20070;-80
2021/06/11 00:48:13;;;;;;;5.03;4.53;;;;;;;16.41;71.04;97002.34;4952407;29;20070;-80
2021/06/11 00:50:42;;;;;;;6.43;4.03;;;;;;;16.39;71.00;96993.84;4952764;28;20059;-80
2021/06/11 00:53:11;;;;;;;5.47;4.05;;;;;;;16.38;71.30;96992.22;4952931;29;20119;-80
2021/06/11 00:55:43;;;;;;;4.30;3.90;;;;;;;16.37;71.62;96989.78;4952212;29;20054;-80
2021/06/11 00:58:15;;;;;;;6.25;4.65;;;;;;;16.36;71.23;96996.09;4952996;29;20066;-80
2021/06/11 01:00:45;;;;;;;5.05;4.55;;;;;;;16.35;72.83;96987.38;4954362;29;20145;-80
2021/06/11 01:03:15;;;;;;;4.68;4.20;;;;;;;16.34;71.88;96988.41;4955953;29;20059;-81
2021/06/11 01:05:44;;;;;;;4.75;4.13;;;;;;;16.31;71.63;96994.09;4952321;29;20054;-80
2021/06/11 01:08:14;;;;;;;5.47;4.43;;;;;;;16.30;71.39;97000.34;4954763;29;20051;-80
2021/06/11 01:10:45;;;;;;;5.28;4.40;;;;;;;16.24;71.22;97001.97;4951899;28;20052;-80
2021/06/11 01:13:18;;;;;;;5.15;4.10;;;;;;;16.20;71.52;96989.44;4952312;29;20048;-80
2021/06/11 01:15:48;;;;;;;4.53;4.13;;;;;;;16.17;71.42;96992.50;4951615;29;20048;-80
2021/06/11 01:18:17;;;;;;;4.53;4.13;;;;;;;16.11;71.66;96993.31;4948854;29;20059;-80
2021/06/11 01:20:46;;;;;;;5.10;3.92;;;;;;;16.07;72.04;96995.59;4954147;29;20052;-80
2021/06/11 01:23:40;;;;;;;4.55;4.13;;;;;;;16.10;72.33;96994.34;4950108;29;20047;-80
2021/06/11 01:26:32;;;;;;;4.88;4.38;;;;;;;16.10;71.66;96994.34;4951487;29;20078;-80
2021/06/11 01:29:04;;;;;;;4.60;4.18;;;;;;;16.04;71.58;96988.88;4952810;29;20059;-80
2021/06/11 01:31:34;;;;;;;4.80;4.40;;;;;;;16.00;71.55;96995.56;4949510;29;20059;-80
2021/06/11 01:34:07;;;;;;;5.05;4.38;;;;;;;15.97;71.67;96984.66;4961467;23;20110;-75
2021/06/11 01:36:39;;;;;;;5.57;4.60;;;;;;;15.97;71.81;96995.19;4938821;29;20051;-75
2021/06/11 01:39:08;;;;;;;3.97;3.63;;;;;;;15.96;71.66;96994.38;4939339;29;20054;-74
2021/06/11 01:41:39;;;;;;;7.45;4.63;;;;;;;15.94;71.93;97001.69;4939265;29;20056;-74
2021/06/11 01:44:08;;;;;;;5.22;4.13;;;;;;;15.90;71.78;97000.47;4939330;29;20051;-76
2021/06/11 01:46:39;;;;;;;7.10;4.30;;;;;;;15.87;72.06;96995.59;4939244;29;20047;-77
2021/06/11 01:49:07;;;;;;;8.02;4.80;;;;;;;15.84;72.07;96996.03;4940415;29;20051;-75
2021/06/11 01:51:37;;;;;;;8.38;4.47;;;;;;;15.85;72.49;96998.47;4940713;29;20059;-75
2021/06/11 01:54:10;;;;;;;5.50;4.65;;;;;;;15.89;72.41;96998.84;4940097;29;20528;-75
2021/06/11 01:56:40;;;;;;;5.10;4.60;;;;;;;15.89;72.25;96998.03;4940656;29;20054;-75
2021/06/11 01:59:08;;;;;;;4.70;4.30;;;;;;;15.85;72.06;97003.72;4940385;29;20055;-78
2021/06/11 02:01:35;;;;;;;5.03;4.50;;;;;;;15.90;73.99;97005.72;4939867;29;20052;-77
2021/06/11 02:04:04;;;;;;;5.20;4.70;;;;;;;15.88;72.38;97002.50;4940457;29;20525;-74
2021/06/11 02:06:32;;;;;;;7.22;4.43;;;;;;;15.83;72.24;97011.00;4940747;29;20044;-76
2021/06/11 02:08:59;;;;;;;6.25;4.75;;;;;;;15.78;72.07;97007.34;4940399;29;20058;-75
2021/06/11 02:11:27;;;;;;;9.02;4.65;;;;;;;15.72;72.36;97011.63;4940421;29;20075;-74
2021/06/11 02:13:57;;;;;;;7.60;4.75;;;;;;;15.66;72.41;97009.78;4940024;29;20051;-76
2021/06/11 02:16:28;;;;;;;5.10;4.18;;;;;;;15.63;72.38;97008.38;4939969;29;20454;-74
2021/06/11 02:18:58;;;;;;;6.40;4.20;;;;;;;15.59;72.61;97009.78;4939912;29;20052;-75
2021/06/11 02:21:26;;;;;;;6.80;4.38;;;;;;;15.58;72.61;97007.34;4939779;29;20054;-75
2021/06/11 02:23:53;;;;;;;6.70;4.80;;;;;;;15.56;72.50;96999.66;4938600;29;20506;-74
2021/06/11 02:26:20;;;;;;;6.25;5.00;;;;;;;15.52;72.53;97003.69;4939447;29;20062;-75
2021/06/11 02:28:49;;;;;;;7.35;4.70;;;;;;;15.49;72.73;96998.84;4939404;29;20051;-74
2021/06/11 02:31:18;;;;;;;5.45;4.95;;;;;;;15.45;72.75;96998.44;4939747;29;20051;-74
2021/06/11 02:33:45;;;;;;;7.30;5.32;;;;;;;15.42;72.73;96998.06;4938717;29;20080;-76
2021/06/11 02:36:13;;;;;;;7.60;5.18;;;;;;;15.44;73.32;97009.19;4939032;29;20055;-75
2021/06/11 02:38:40;;;;;;;6.05;4.82;;;;;;;15.43;73.10;96999.66;4938569;29;20514;-73
2021/06/11 02:41:09;;;;;;;13.60;5.60;;;;;;;15.43;73.09;97010.97;4938447;29;20048;-74
2021/06/11 02:43:39;;;;;;;6.90;6.05;;;;;;;15.39;73.26;97004.53;4938381;29;20130;-74
2021/06/11 02:46:11;;;;;;;5.22;4.72;;;;;;;15.41;73.25;97005.16;4938725;29;20055;-74
2021/06/11 02:48:46;;;;;;;6.88;5.32;;;;;;;15.41;73.17;97001.69;4938204;29;20051;-74
2021/06/11 02:51:20;;;;;;;7.68;5.15;;;;;;;15.41;73.14;96997.25;4937607;29;20114;-76
2021/06/11 02:53:49;;;;;;;7.88;5.68;;;;;;;15.40;73.43;97000.09;4937867;29;20051;-74
2021/06/11 02:56:19;;;;;;;5.90;5.30;;;;;;;15.43;74.67;97004.91;4938491;29;20048;-75
2021/06/11 02:58:49;;;;;;;6.47;5.45;;;;;;;15.46;73.75;97004.53;4937940;29;20119;-74
2021/06/11 03:01:18;;;;;;;8.38;5.50;;;;;;;15.49;73.52;96998.06;4937451;29;20055;-76
2021/06/11 03:03:50;;;;;;;6.53;5.53;;;;;;;15.55;76.54;97002.50;4937388;29;20052;-74
2021/06/11 03:06:20;;;;;;;6.85;5.97;;;;;;;15.59;74.19;97004.53;4937824;29;20430;-74
2021/06/11 03:08:49;;;;;;;8.98;5.13;;;;;;;15.62;76.11;96998.84;4937868;29;20057;-74
2021/06/11 03:11:20;;;;;;;6.72;5.32;;;;;;;15.64;76.09;97007.34;4937883;29;20058;-74
2021/06/11 03:13:49;;;;;;;6.50;5.35;;;;;;;15.65;75.29;97008.97;4937062;29;20064;-75
2021/06/11 03:16:16;;;;;;;5.95;5.35;;;;;;;15.65;74.32;96997.63;4937307;29;20055;-74
2021/06/11 03:18:46;;;;;;;6.80;6.20;;;;;;;15.69;76.00;97006.72;4937549;29;20498;-76
2021/06/11 03:21:18;;;;;;;8.55;5.93;;;;;;;15.67;75.33;97006.13;4937685;29;20079;-74
2021/06/11 03:23:49;;;;;;;5.78;4.97;;;;;;;15.64;74.37;97002.09;4937531;29;20058;-74
2021/06/11 03:26:22;;;;;;;5.63;5.03;;;;;;;15.64;74.26;97012.59;4939165;29;20059;-74
2021/06/11 03:28:53;;;;;;;5.80;5.18;;;;;;;15.64;73.81;97019.69;4940490;29;20079;-76
2021/06/11 03:31:22;;;;;;;5.65;5.05;;;;;;;15.63;73.63;97013.63;4939921;29;20051;-75
2021/06/11 03:33:56;;;;;;;8.45;4.32;;;;;;;15.61;73.69;97012.19;4939292;29;20071;-75
2021/06/11 03:36:29;;;;;;;8.48;4.57;;;;;;;15.55;72.48;97013.81;4939628;29;20055;-75
2021/06/11 03:39:01;;;;;;;5.30;4.80;;;;;;;15.50;72.22;97016.25;4939685;29;20543;-77
2021/06/11 03:41:28;;;;;;;6.18;5.10;;;;;;;15.51;72.89;97022.31;4939265;29;20052;-76
2021/06/11 03:43:56;;;;;;;5.85;4.25;;;;;;;15.50;72.64;97021.50;4939216;29;20399;-76
2021/06/11 03:46:30;;;;;;;5.43;4.82;;;;;;;15.49;73.09;97017.25;4942267;29;20043;-74
2021/06/11 03:49:00;;;;;;;5.43;4.93;;;;;;;15.48;72.45;97018.28;4945339;29;20051;-74
2021/06/11 03:51:30;;;;;;;5.75;5.15;;;;;;;15.45;72.39;97022.09;4945129;29;20058;-74
2021/06/11 03:53:58;;;;;;;7.45;5.30;;;;;;;15.42;72.25;97021.72;4942188;29;20051;-75
2021/06/11 03:56:28;;;;;;;6.90;5.65;;;;;;;15.39;72.42;97014.22;4943327;29;20058;-74
2021/06/11 03:58:56;;;;;;;8.63;4.78;;;;;;;15.35;72.39;97018.25;4943238;29;20052;-74
2021/06/11 04:01:36;;;;;;;8.23;6.03;;;;;;;15.29;72.63;97013.84;4943123;29;20059;-74
2021/06/11 04:04:06;;;;;;;7.25;5.65;;;;;;;15.22;72.84;97019.88;4942503;29;20044;-74
2021/06/11 04:06:37;;;;;;;8.57;5.50;;;;;;;15.18;73.12;97018.66;4942067;29;20048;-75
2021/06/11 04:09:10;;;;;;;8.32;6.30;;;;;;;15.14;73.48;97014.00;4942741;29;20051;-74
2021/06/11 04:11:42;;;;;;;8.45;5.65;;;;;;;15.12;73.40;97019.47;4942511;29;20067;-74
2021/06/11 04:14:15;;;;;;;10.75;6.32;;;;;;;15.10;73.46;97013.59;4942301;29;20114;-75
2021/06/11 04:16:45;;;;;;;;;;;;;;;15.13;74.28;97015.84;4942765;29;20059;-74
2021/06/11 04:19:18;;;;;;;5.18;4.78;;;;;;;15.19;73.78;97022.09;4942506;29;19950;-74
2021/06/11 04:21:48;;;;;;;8.45;5.57;;;;;;;15.21;73.74;97018.25;4942292;29;20102;-75
2021/06/11 04:24:16;;;;;;;7.72;5.75;;;;;;;15.27;73.78;97023.72;4942336;29;20052;-74
2021/06/11 04:26:45;;;;;;;8.57;5.55;;;;;;;15.32;73.77;97023.94;4941972;29;20106;-76
2021/06/11 04:29:16;;;;;;;11.43;5.47;;;;;;;15.38;74.38;97023.13;4941892;29;20111;-74
2021/06/11 04:31:43;;;;;;;7.13;5.30;;;;;;;15.39;73.77;97020.31;4941101;29;20052;-74
2021/06/11 04:34:15;;;;;;;6.45;5.85;;;;;;;15.39;74.01;97016.84;4941102;29;20106;-76
2021/06/11 04:36:43;;;;;;;7.55;6.82;;;;;;;15.38;73.70;97021.31;4941357;29;20052;-76
2021/06/11 04:39:13;;;;;;;7.57;6.47;;;;;;;15.40;74.24;97024.53;4940727;29;20055;-74
2021/06/11 04:41:40;;;;;;;6.45;5.85;;;;;;;15.44;74.93;97022.34;4940961;29;20510;-75
2021/06/11 04:44:10;;;;;;;7.95;6.40;;;;;;;15.49;74.40;97022.53;4943651;28;20462;-73
2021/06/11 04:46:37;;;;;;;6.70;5.90;;;;;;;15.51;74.35;97025.75;4940016;29;20123;-73
2021/06/11 04:49:05;;;;;;;7.05;6.15;;;;;;;15.57;75.18;97024.97;4940268;29;20048;-73
2021/06/11 04:51:32;;;;;;;6.45;5.68;;;;;;;15.64;74.74;97028.38;4941116;29;20052;-74
2021/06/11 04:53:59;;;;;;;8.02;6.45;;;;;;;15.73;76.00;97025.59;4939063;29;20058;-73
2021/06/11 04:56:27;;;;;;;10.63;5.55;;;;;;;15.78;74.87;97031.03;4938074;29;20052;-74
2021/06/11 04:58:55;;;;;;;6.78;6.10;;;;;;;15.84;75.83;97023.13;4939838;29;20051;-74
2021/06/11 05:01:22;;;;;;;7.97;7.15;;;;;;;15.94;77.37;97033.25;4940277;29;20059;-74
2021/06/11 05:03:50;;;;;;;9.60;6.90;;;;;;;16.02;77.74;97030.38;4938869;29;20422;-74
2021/06/11 05:06:17;;;;;;;6.97;5.97;;;;;;;16.06;75.63;97031.59;4939745;29;20063;-73
2021/06/11 05:08:45;;;;;;;8.05;7.07;;;;;;;16.12;76.83;97031.81;4940074;29;20074;-75
2021/06/11 05:11:12;;;;;;;7.70;6.50;;;;;;;16.18;75.80;97030.94;4940282;29;20067;-74
2021/06/11 05:13:40;;;;;;;7.47;6.35;;;;;;;16.21;75.89;97034.00;4940590;29;20055;-74
2021/06/11 05:16:08;;;;;;;8.73;7.90;;;;;;;16.29;77.33;97038.25;4939433;29;20063;-73
2021/06/11 05:18:35;;;;;;;8.57;6.80;;;;;;;16.37;78.16;97037.19;4939359;29;20521;-74
2021/06/11 05:21:03;;;;;;;9.23;6.78;;;;;;;16.42;76.66;97035.56;4939437;29;20063;-74
2021/06/11 05:23:30;;;;;;;7.53;6.72;;;;;;;16.45;75.90;97034.34;4938401;29;20052;-74
2021/06/11 05:25:57;;;;;;;8.82;6.90;;;;;;;16.48;75.40;97039.97;4939432;29;20051;-75
2021/06/11 05:28:25;;;;;;;7.47;6.78;;;;;;;16.53;75.20;97041.19;4939630;29;20044;-76
2021/06/11 05:30:55;;;;;;;8.20;6.70;;;;;;;16.55;74.49;97047.03;4937998;29;20097;-74
2021/06/11 05:33:23;;;;;;;7.53;6.78;;;;;;;16.58;75.06;97039.53;4937088;29;20055;-73
2021/06/11 05:35:50;;;;;;;8.82;7.32;;;;;;;16.65;75.63;97042.94;4937863;29;20458;-74
2021/06/11 05:38:18;;;;;;;8.20;7.38;;;;;;;16.69;75.10;97045.97;4937742;29;20051;-74
2021/06/11 05:40:45;;;;;;;10.27;7.13;;;;;;;16.74;75.96;97037.44;4938351;29;20051;-75
2021/06/11 05:43:13;;;;;;;9.63;7.28;;;;;;;16.78;75.22;97044.72;4937965;29;20533;-75
2021/06/11 05:45:40;;;;;;;9.27;6.93;;;;;;;16.82;75.04;97039.88;4940564;29;20529;-78
2021/06/11 05:48:09;;;;;;;8.20;6.93;;;;;;;16.88;76.08;97050.38;4946970;28;20059;-79
2021/06/11 05:50:36;;;;;;;9.98;7.32;;;;;;;16.90;74.80;97047.53;4948280;28;20047;-76
2021/06/11 05:53:03;;;;;;;10.88;7.93;;;;;;;16.93;74.23;97044.47;4938321;29;20063;-77
2021/06/11 05:55:30;;;;;;;10.88;8.00;;;;;;;16.97;73.69;97048.31;4938404;29;20052;-77
2021/06/11 05:57:57;;;;;;;8.38;7.25;;;;;;;17.02;73.44;97045.84;4929723;29;20391;-76
2021/06/11 06:00:24;;;;;;;10.32;8.13;;;;;;;17.07;73.09;97048.63;4931089;29;20055;-77
2021/06/11 06:02:51;;;;;;;9.48;7.50;;;;;;;17.12;72.93;97048.03;4937108;29;20079;-81
2021/06/11 06:05:20;;;;;;;10.38;8.27;;;;;;;17.20;72.86;97046.97;4935411;29;20148;-75
2021/06/11 06:07:48;;;;;;;9.57;8.02;;;;;;;17.25;72.15;97045.31;4938608;28;20503;-79
2021/06/11 06:10:15;;;;;;;9.98;8.98;;;;;;;17.32;71.88;97047.06;4947782;29;20421;-78
2021/06/11 06:12:42;;;;;;;9.85;8.82;;;;;;;17.38;72.03;97043.59;4956002;28;20055;-77
2021/06/11 06:15:10;;;;;;;8.40;7.60;;;;;;;17.45;72.64;97037.25;4960953;28;20047;-76
2021/06/11 06:17:38;;;;;;;9.52;8.38;;;;;;;17.53;72.10;97036.16;4941215;29;20450;-77
2021/06/11 06:20:07;;;;;;;10.95;8.13;;;;;;;17.58;71.52;97039.00;4940866;29;20063;-75
2021/06/11 06:22:42;;;;;;;9.45;8.52;;;;;;;17.65;71.94;97042.38;4938841;29;20130;-75
2021/06/11 06:25:11;;;;;;;10.38;9.32;;;;;;;17.71;71.75;97044.16;4952015;29;20051;-76
2021/06/11 06:27:40;;;;;;;11.68;10.48;;;;;;;17.79;72.06;97039.63;4954299;28;20103;-75
2021/06/11 06:30:09;;;;;;;13.77;11.27;;;;;;;17.86;71.71;97046.50;4939161;29;20047;-75
2021/06/11 06:32:36;;;;;;;12.35;9.98;;;;;;;17.91;70.95;97049.28;4940123;29;20052;-75
2021/06/11 06:35:03;;;;;;;10.48;9.48;;;;;;;17.97;70.95;97047.59;4938834;29;20063;-76
2021/06/11 06:37:30;;;;;;;10.65;9.32;;;;;;;18.04;70.96;97047.56;4937437;29;20070;-76
2021/06/11 06:39:59;;;;;;;10.93;9.05;;;;;;;18.10;71.00;97036.91;4936759;29;20055;-76
2021/06/11 06:42:26;;;;;;;11.40;10.23;;;;;;;18.18;70.75;97042.94;4937062;29;20056;-77
2021/06/11 06:44:53;;;;;;;12.13;8.20;;;;;;;18.25;70.19;97035.75;4935766;29;20434;-76
2021/06/11 06:47:20;;;;;;;8.93;8.05;;;;;;;18.32;69.83;97039.09;4938319;29;20058;-78
2021/06/11 06:49:47;;;;;;;9.52;8.52;;;;;;;18.38;69.83;97043.50;4939779;29;20077;-76
2021/06/11 06:52:16;;;;;;;9.63;8.65;;;;;;;18.44;69.43;97036.56;4941372;29;20052;-77
2021/06/11 06:54:43;;;;;;;10.27;7.88;;;;;;;18.51;69.88;97037.28;4940388;29;20060;-77
2021/06/11 06:57:12;;;;;;;8.48;7.57;;;;;;;18.59;70.15;97037.00;4940387;29;20047;-76
2021/06/11 06:59:39;;;;;;;9.48;8.45;;;;;;;18.66;69.88;97037.69;4936401;29;20055;-77
2021/06/11 07:02:07;;;;;;;11.48;7.90;;;;;;;18.73;70.05;97034.97;4939500;29;20059;-76
2021/06/11 07:04:34;;;;;;;11.93;8.40;;;;;;;18.82;69.32;97032.88;4939304;29;20051;-77
2021/06/11 07:07:01;;;;;;;8.27;7.43;;;;;;;18.89;68.98;97030.94;4940112;29;20479;-76
2021/06/11 07:09:28;;;;;;;8.13;7.43;;;;;;;18.97;68.99;97045.69;4940753;29;20056;-75
2021/06/11 07:11:55;;;;;;;12.57;8.35;;;;;;;19.03;68.85;97052.72;4939568;29;20058;-76
2021/06/11 07:14:27;;;;;;;8.35;7.55;;;;;;;19.09;68.88;97049.19;4938821;29;20528;-74
2021/06/11 07:16:54;;;;;;;7.75;7.05;;;;;;;19.17;69.24;97045.41;4938796;29;20054;-77
2021/06/11 07:19:21;;;;;;;8.38;7.38;;;;;;;19.24;68.47;97052.22;4937568;29;20146;-76
2021/06/11 07:21:48;;;;;;;7.63;6.93;;;;;;;19.31;68.30;97050.28;4938848;29;20067;-75
2021/06/11 07:24:15;;;;;;;8.18;7.38;;;;;;;19.40;67.59;97049.97;4938469;29;20147;-75
2021/06/11 07:26:43;;;;;;;7.55;6.70;;;;;;;19.46;66.55;97055.16;4944723;29;20051;-76
2021/06/11 07:29:10;;;;;;;9.30;7.00;;;;;;;19.54;65.96;97056.66;4945891;29;20138;-76
2021/06/11 07:31:38;;;;;;;7.50;6.80;;;;;;;19.63;66.51;97057.13;4941086;29;20074;-75
2021/06/11 07:34:05;;;;;;;7.25;6.55;;;;;;;19.70;65.98;97049.91;4940015;29;20074;-77
2021/06/11 07:36:32;;;;;;;7.47;6.78;;;;;;;19.81;66.99;97050.94;4939727;29;20052;-76
2021/06/11 07:39:00;;;;;;;8.02;5.57;;;;;;;19.90;66.24;97049.59;4940366;29;20537;-77
2021/06/11 07:41:27;;;;;;;6.68;6.05;;;;;;;19.99;65.48;97053.50;4939962;29;20051;-75
2021/06/11 07:43:55;;;;;;;5.60;5.10;;;;;;;20.07;64.86;97050.50;4939589;29;20483;-76
2021/06/11 07:46:22;;;;;;;6.18;5.57;;;;;;;20.16;64.72;97053.63;4938805;29;20063;-79
2021/06/11 07:48:51;;;;;;;6.25;5.75;;;;;;;20.25;64.49;97054.06;4938443;29;20052;-76
2021/06/11 07:51:18;;;;;;;6.20;5.60;;;;;;;20.32;64.17;97046.81;4940181;29;20091;-78
2021/06/11 07:53:46;;;;;;;6.35;5.75;;;;;;;20.41;64.35;97045.41;4939684;29;20056;-76
2021/06/11 07:56:13;;;;;;;7.28;6.05;;;;;;;20.49;63.72;97045.03;4940967;29;20063;-77
2021/06/11 07:58:41;;;;;;;7.35;5.55;;;;;;;20.57;63.33;97044.72;4940383;29;20051;-78
2021/06/11 08:01:08;;;;;;;7.22;5.95;;;;;;;20.67;63.44;97048.59;4939003;29;20434;-76
2021/06/11 08:03:36;;;;;;;6.07;5.22;;;;;;;20.77;63.28;97043.47;4935289;29;20048;-76
2021/06/11 08:06:04;;;;;;;7.68;5.32;;;;;;;20.82;61.07;97040.94;4941720;29;20047;-80
2021/06/11 08:08:31;;;;;;;5.90;4.50;;;;;;;20.88;60.42;97045.31;4940149;29;20056;-78
2021/06/11 08:10:59;;;;;;;5.28;4.78;;;;;;;20.95;59.24;97042.50;4941993;29;20055;-79
2021/06/11 08:13:26;;;;;;;4.90;4.45;;;;;;;21.01;58.46;97044.19;4947563;29;20055;-79
2021/06/11 08:15:53;;;;;;;5.70;3.90;;;;;;;21.10;58.40;97041.97;4948857;29;20051;-79
2021/06/11 08:18:20;;;;;;;10.63;4.55;;;;;;;21.20;58.71;97042.16;4946249;29;20058;-77
2021/06/11 08:20:47;;;;;;;4.72;4.32;;;;;;;21.29;58.48;97045.22;4941233;29;20106;-78
2021/06/11 08:23:15;;;;;;;6.45;4.65;;;;;;;21.40;56.94;97044.34;4941497;29;20067;-77
2021/06/11 08:25:42;;;;;;;5.90;4.28;;;;;;;21.49;56.52;97042.94;4946554;29;20062;-76
2021/06/11 08:28:10;;;;;;;5.22;4.43;;;;;;;21.57;57.25;97036.44;4941260;29;20066;-76
2021/06/11 08:30:41;;;;;;;4.07;3.63;;;;;;;21.65;55.45;97043.19;4940974;29;20297;-77
2021/06/11 08:33:13;;;;;;;4.40;3.85;;;;;;;21.71;54.52;97039.56;4943376;29;20403;-81
2021/06/11 08:35:40;;;;;;;3.53;3.22;;;;;;;21.79;53.89;97037.31;4942862;29;20055;-78
2021/06/11 08:38:07;;;;;;;5.30;3.83;;;;;;;21.88;54.12;97031.59;4942696;29;20052;-76
2021/06/11 08:40:35;;;;;;;7.20;3.72;;;;;;;21.96;53.73;97031.19;4942971;29;20121;-74
2021/06/11 08:43:03;;;;;;;3.45;3.15;;;;;;;22.04;51.74;97030.78;4940442;29;20048;-75
2021/06/11 08:45:30;;;;;;;3.75;3.45;;;;;;;22.12;51.91;97038.31;4940819;29;20051;-74
2021/06/11 08:47:58;;;;;;;3.22;3.03;;;;;;;22.21;52.54;97031.53;4940346;29;20060;-76
2021/06/11 08:50:28;;;;;;;3.95;3.63;;;;;;;22.26;51.05;97033.50;4940347;29;20060;-75
2021/06/11 08:52:56;;;;;;;3.53;3.22;;;;;;;22.37;52.41;97042.41;4938726;29;20425;-77
2021/06/11 08:55:24;;;;;;;3.15;2.95;;;;;;;22.47;50.30;97042.50;4940419;29;20671;-77
2021/06/11 08:57:53;;;;;;;3.30;2.70;;;;;;;22.53;48.12;97030.91;4939278;29;20055;-76
2021/06/11 09:00:21;;;;;;;3.92;3.33;;;;;;;22.60;49.12;97034.16;4941934;29;20044;-76
2021/06/11 09:03:17;;;;;;;4.15;3.10;;;;;;;22.74;49.47;97033.78;4938842;29;20061;-76
2021/06/11 09:05:46;;;;;;;3.40;3.15;;;;;;;22.81;48.29;97037.06;4917889;28;20526;-78
2021/06/11 09:08:18;;;;;;;4.47;3.25;;;;;;;22.88;48.10;97029.69;4939361;28;20052;-75
2021/06/11 09:10:46;;;;;;;;;;;;;;;22.96;49.64;97031.91;4939553;29;20055;-76
2021/06/11 09:13:23;;;;;;;3.53;3.22;;;;;;;23.06;48.55;97035.75;4940057;29;19923;-76
2021/06/11 09:15:50;;;;;;;6.75;3.55;;;;;;;23.11;48.75;97028.63;4939327;29;20071;-76
2021/06/11 09:18:22;;;;;;;5.80;3.60;;;;;;;23.19;48.10;97030.03;4939759;29;20052;-76
2021/06/11 09:20:50;;;;;;;4.33;3.57;;;;;;;23.26;49.46;97027.16;4939446;29;20052;-76
2021/06/11 09:23:18;;;;;;;4.57;3.70;;;;;;;23.32;48.16;97024.28;4936797;29;20290;-75
2021/06/11 09:25:49;;;;;;;4.13;3.72;;;;;;;23.33;46.90;97033.91;4937087;29;20077;-75
2021/06/11 09:28:22;;;;;;;4.10;3.70;;;;;;;23.38;47.22;97027.81;4937463;29;20051;-74
2021/06/11 09:30:53;;;;;;;4.07;3.75;;;;;;;23.44;46.44;97027.59;4939870;29;20052;-77
2021/06/11 09:33:22;;;;;;;4.68;4.00;;;;;;;23.50;46.32;97028.44;4942614;29;20052;-78
2021/06/11 09:35:53;;;;;;;5.45;3.95;;;;;;;23.58;47.21;97032.50;4941954;29;20107;-77
2021/06/11 09:38:25;;;;;;;4.20;3.85;;;;;;;23.64;47.23;97031.47;4939448;29;20048;-78
2021/06/11 09:41:08;;;;;;;4.63;3.58;;;;;;;23.72;46.90;97030.19;4939610;29;20044;-77
2021/06/11 09:43:54;;;;;;;3.75;3.45;;;;;;;23.79;47.36;97028.13;4939960;29;20102;-77
2021/06/11 09:46:23;;;;;;;4.32;3.70;;;;;;;23.85;45.64;97030.59;4940303;29;20059;-77
2021/06/11 09:48:51;;;;;;;5.63;3.95;;;;;;;23.91;46.02;97033.28;4940060;29;20044;-78
2021/06/11 09:51:19;;;;;;;4.63;3.47;;;;;;;23.94;43.71;97025.59;4957003;28;20460;-77
2021/06/11 09:53:47;;;;;;;4.03;3.50;;;;;;;23.98;44.05;97031.19;4940733;29;20060;-79
2021/06/11 09:56:21;;;;;;;3.50;3.20;;;;;;;24.04;42.70;97030.19;4938529;29;20454;-76
2021/06/11 09:58:48;;;;;;;3.40;3.10;;;;;;;24.13;44.53;97027.84;4936606;29;20391;-76
2021/06/11 10:01:15;;;;;;;3.78;3.10;;;;;;;24.18;42.98;97026.00;4936786;29;20048;-74
2021/06/11 10:03:47;;;;;;;3.67;3.38;;;;;;;24.23;42.58;97023.34;4935542;29;20056;-77
2021/06/11 10:06:15;;;;;;;5.18;2.92;;;;;;;24.29;42.94;97026.84;4935874;29;20059;-77
2021/06/11 10:08:44;;;;;;;3.20;2.60;;;;;;;24.34;42.50;97023.41;4936579;29;20527;-75
2021/06/11 10:11:13;;;;;;;5.40;3.05;;;;;;;24.42;48.02;97025.56;4936399;29;20047;-75
2021/06/11 10:13:40;;;;;;;5.03;3.30;;;;;;;24.49;44.57;97020.03;4936797;29;20136;-75
2021/06/11 10:16:09;;;;;;;5.30;2.97;;;;;;;24.52;43.78;97025.66;4939646;29;20048;-76
2021/06/11 10:18:37;;;;;;;3.17;2.97;;;;;;;24.54;43.72;97028.84;4937897;29;20480;-75
2021/06/11 10:21:07;;;;;;;3.88;3.42;;;;;;;24.57;44.37;97017.66;4938159;29;20058;-75
2021/06/11 10:23:36;;;;;;;4.57;3.25;;;;;;;24.59;43.01;97020.06;4937394;29;20047;-77
2021/06/11 10:26:04;;;;;;;8.63;3.25;;;;;;;24.63;44.32;97019.28;4938822;29;20140;-77
2021/06/11 10:28:37;;;;;;;3.17;2.72;;;;;;;24.66;42.94;97016.09;4939255;29;20561;-78
2021/06/11 10:31:06;;;;;;;3.20;2.90;;;;;;;24.68;43.48;97018.50;4938410;29;20063;-73
2021/06/11 10:33:53;;;;;;;3.33;3.03;;;;;;;24.70;44.03;97010.25;4936542;29;20055;-76
2021/06/11 10:36:48;;;;;;;3.40;3.10;;;;;;;24.73;45.26;97012.38;4937052;29;20051;-75
2021/06/11 10:39:24;;;;;;;4.38;3.08;;;;;;;24.79;43.80;97011.31;4913030;29;20066;-76
2021/06/11 10:42:01;;;;;;;2.97;2.70;;;;;;;24.81;43.43;97012.66;4937426;29;20063;-77
2021/06/11 10:44:49;;;;;;;3.22;2.92;;;;;;;24.89;44.28;97014.03;4936220;29;20051;-77
2021/06/11 10:47:27;;;;;;;3.92;3.15;;;;;;;24.92;42.86;97012.69;4937776;29;20470;-76
2021/06/11 10:50:34;;;;;;;2.78;2.58;;;;;;;24.92;43.57;97008.16;4943462;28;20055;-78
2021/06/11 10:53:11;;;;;;;2.95;2.75;;;;;;;24.96;43.69;97003.91;4954858;28;20142;-77
2021/06/11 10:55:50;;;;;;;2.88;2.67;;;;;;;24.99;43.58;97000.72;4956759;28;20540;-75
2021/06/11 10:58:25;;;;;;;3.60;3.30;;;;;;;25.06;43.89;97003.91;4963103;29;20055;-75
2021/06/11 11:00:52;;;;;;;5.53;2.60;;;;;;;25.17;45.19;97001.28;4948946;29;20063;-77
2021/06/11 11:03:31;;;;;;;3.10;2.90;;;;;;;25.27;43.23;96995.94;4940572;29;20067;-76
2021/06/11 11:06:19;;;;;;;3.45;3.25;;;;;;;25.34;42.03;97001.81;4936455;29;20066;-76
2021/06/11 11:08:52;;;;;;;3.63;3.28;;;;;;;25.40;40.79;96997.28;4937573;29;20114;-77
2021/06/11 11:11:30;;;;;;;4.03;3.13;;;;;;;25.44;41.18;96998.38;4937567;29;20064;-75
2021/06/11 11:13:58;;;;;;;3.60;3.10;;;;;;;25.52;42.70;96999.69;4935909;29;20051;-77
2021/06/11 11:16:26;;;;;;;3.00;2.70;;;;;;;25.62;42.30;96994.34;4939961;29;20048;-77
2021/06/11 11:18:55;;;;;;;3.47;3.25;;;;;;;25.70;42.26;96997.28;4939816;29;20487;-77
2021/06/11 11:21:28;;;;;;;3.15;2.95;;;;;;;25.79;42.18;96994.84;4938318;29;20055;-76
2021/06/11 11:23:58;;;;;;;3.83;3.40;;;;;;;25.88;42.02;96997.81;4936187;29;20058;-77
2021/06/11 11:26:39;;;;;;;4.20;3.83;;;;;;;25.94;41.85;96990.59;4937285;29;20059;-77
2021/06/11 11:29:07;;;;;;;4.40;3.10;;;;;;;25.96;40.98;96997.25;4940441;29;20060;-77
2021/06/11 11:31:34;;;;;;;3.60;3.30;;;;;;;25.98;41.27;96989.78;4942393;29;20059;-78
2021/06/11 11:34:02;;;;;;;3.60;3.30;;;;;;;26.03;40.64;96992.44;4941022;28;20059;-77
2021/06/11 11:36:28;;;;;;;2.90;2.70;;;;;;;26.10;40.61;96990.25;4937153;29;20510;-76
2021/06/11 11:38:58;;;;;;;3.85;2.90;;;;;;;26.17;42.42;96984.63;4937272;29;20047;-78
2021/06/11 11:41:25;;;;;;;3.78;3.03;;;;;;;26.23;42.37;96988.09;4938888;29;20623;-78
2021/06/11 11:43:52;;;;;;;3.95;2.65;;;;;;;26.25;42.36;96981.41;4939183;29;20051;-78
2021/06/11 11:46:19;;;;;;;2.85;2.58;;;;;;;26.29;39.38;96977.09;4938330;29;20055;-79